Time;durP1;ratioP1;P1;durP2;ratioP2;P2;SDS_P1;SDS_P2;PMS_P1;PMS_P2;Temp;Humidity;BMP_temperature;BMP_pressure;BME280_temperature;BME280_humidity;BME280_pressure;Samples;Min_cycle;Max_cycle;Signal;HPM_P1;HPM_P2
2021/04/07 00:01:59;;;;;;;3.85;2.67;;;128.90;1843.20;;;;;;5092950;28;20020;-78
2021/04/07 00:04:25;;;;;;;6.28;2.13;;;128.80;1843.20;;;;;;5094072;28;20020;-78
2021/04/07 00:06:54;;;;;;;3.42;2.50;;;128.80;1843.20;;;;;;5090305;28;20032;-79
2021/04/07 00:09:20;;;;;;;3.58;2.08;;;128.80;1843.20;;;;;;5075497;28;20020;-78
2021/04/07 00:11:46;;;;;;;3.88;2.65;;;128.80;1868.80;;;;;;5092651;28;20077;-78
2021/04/07 00:14:11;;;;;;;10.63;3.70;;;128.80;1843.20;;;;;;5088107;28;20033;-78
2021/04/07 00:16:37;;;;;;;5.65;2.58;;;128.80;1843.20;;;;;;5071986;28;20033;-78
2021/04/07 00:19:07;;;;;;;2.42;2.10;;;128.70;1868.80;;;;;;5073390;28;20024;-78
2021/04/07 00:21:32;;;;;;;3.38;2.15;;;128.60;1868.80;;;;;;5074995;28;20107;-78
2021/04/07 00:23:58;;;;;;;3.58;2.65;;;128.60;1868.80;;;;;;5080102;28;20119;-76
2021/04/07 00:26:25;;;;;;;4.68;2.33;;;128.60;1868.80;;;;;;5081934;28;20224;-78
2021/04/07 00:28:50;;;;;;;4.53;2.22;;;128.50;1868.80;;;;;;5080142;28;20020;-77
2021/04/07 00:31:16;;;;;;;2.88;2.03;;;128.50;1868.80;;;;;;5074435;28;20338;-77
2021/04/07 00:33:42;;;;;;;5.82;2.30;;;128.60;1868.80;;;;;;5093935;28;20024;-77
2021/04/07 00:36:07;;;;;;;3.75;2.30;;;128.60;1868.80;;;;;;5092564;28;20492;-77
2021/04/07 00:38:34;;;;;;;2.17;2.00;;;128.50;1894.40;;;;;;5091827;28;20028;-77
2021/04/07 00:41:00;;;;;;;2.17;2.08;;;128.50;1894.40;;;;;;5092876;28;20064;-77
2021/04/07 00:43:26;;;;;;;4.53;2.08;;;128.40;1894.40;;;;;;5092643;28;20025;-77
2021/04/07 00:45:52;;;;;;;5.93;2.40;;;128.30;1894.40;;;;;;5087634;28;20028;-78
2021/04/07 00:48:18;;;;;;;3.05;2.40;;;128.40;1894.40;;;;;;5076943;28;20411;-78
2021/04/07 00:50:44;;;;;;;2.67;2.47;;;128.40;1894.40;;;;;;5091399;28;20028;-78
2021/04/07 00:53:10;;;;;;;2.13;1.92;;;128.20;1920.00;;;;;;5092042;28;20028;-77
2021/04/07 00:55:44;;;;;;;6.72;2.40;;;128.20;1920.00;;;;;;5093034;28;20165;-78
2021/04/07 00:58:09;;;;;;;2.50;2.13;;;128.30;1920.00;;;;;;5091838;28;20107;-77
2021/04/07 01:00:35;;;;;;;3.88;2.03;;;128.30;1920.00;;;;;;5091871;28;20121;-77
2021/04/07 01:03:03;;;;;;;3.45;2.20;;;128.20;1920.00;;;;;;5082235;28;20581;-77
2021/04/07 01:05:29;;;;;;;3.78;2.55;;;128.30;1920.00;;;;;;5072360;28;20096;-77
2021/04/07 01:07:55;;;;;;;3.83;2.85;;;128.30;1920.00;;;;;;5071052;28;20123;-77
2021/04/07 01:10:22;;;;;;;3.88;2.10;;;128.20;1920.00;;;;;;5079635;28;20031;-77
2021/04/07 01:12:48;;;;;;;4.05;2.67;;;128.30;1920.00;;;;;;5093159;28;20073;-78
2021/04/07 01:15:15;;;;;;;2.75;2.38;;;128.10;1945.60;;;;;;5093233;28;20496;-78
2021/04/07 01:17:42;;;;;;;2.75;2.30;;;128.00;1945.60;;;;;;5092953;28;20032;-77
2021/04/07 01:20:10;;;;;;;5.22;2.45;;;128.00;1945.60;;;;;;5084596;28;20062;-77
2021/04/07 01:22:37;;;;;;;4.28;2.85;;;128.00;1945.60;;;;;;5085704;28;20048;-77
2021/04/07 01:25:05;;;;;;;3.58;2.70;;;103.30;1945.60;;;;;;5072874;28;20410;-77
2021/04/07 01:27:31;;;;;;;4.97;2.35;;;128.00;1971.20;;;;;;5076611;28;20027;-78
2021/04/07 01:29:57;;;;;;;3.60;2.90;;;128.00;1971.20;;;;;;5091437;28;20047;-78
2021/04/07 01:32:23;;;;;;;2.88;2.63;;;128.00;1971.20;;;;;;5090838;28;20036;-77
2021/04/07 01:34:49;;;;;;;5.45;2.95;;;128.00;1971.20;;;;;;5091583;28;20040;-77
2021/04/07 01:37:15;;;;;;;5.63;3.20;;;103.30;1945.60;;;;;;5092408;28;20534;-77
2021/04/07 01:39:41;;;;;;;6.03;2.95;;;128.00;1971.20;;;;;;5091530;28;20069;-78
2021/04/07 01:42:08;;;;;;;5.60;3.13;;;103.30;1945.60;;;;;;5093040;28;20358;-78
2021/04/07 01:44:37;;;;;;;3.90;2.35;;;103.30;1945.60;;;;;;5092873;28;20020;-77
2021/04/07 01:47:04;;;;;;;6.38;3.22;;;103.30;1945.60;;;;;;5092041;28;20058;-78
2021/04/07 01:49:32;;;;;;;6.65;2.88;;;103.20;1945.60;;;;;;5092544;28;20020;-77
2021/04/07 01:51:58;;;;;;;6.13;3.17;;;103.20;1945.60;;;;;;5092519;28;20470;-77
2021/04/07 01:54:24;;;;;;;4.60;2.85;;;103.20;1945.60;;;;;;5092488;28;20032;-77
2021/04/07 01:56:57;;;;;;;6.78;3.17;;;103.20;1945.60;;;;;;5091240;28;20150;-78
2021/04/07 01:59:31;;;;;;;6.00;3.03;;;103.20;1945.60;;;;;;5092351;28;20020;-78
2021/04/07 02:01:59;;;;;;;7.05;3.63;;;103.20;1945.60;;;;;;5092481;28;20016;-79
2021/04/07 02:04:26;;;;;;;5.32;3.55;;;103.20;1945.60;;;;;;5092516;28;20024;-78
2021/04/07 02:06:52;;;;;;;8.63;3.70;;;103.20;1945.60;;;;;;5092365;28;20097;-78
2021/04/07 02:09:19;;;;;;;6.70;3.20;;;103.10;1945.60;;;;;;5092646;28;20025;-79
2021/04/07 02:11:47;;;;;;;9.30;3.85;;;103.10;1945.60;;;;;;5092330;28;20097;-78
2021/04/07 02:14:14;;;;;;;6.38;4.13;;;103.20;1920.00;;;;;;5091935;28;20079;-77
2021/04/07 02:16:40;;;;;;;12.88;4.30;;;103.10;1920.00;;;;;;5090902;28;20028;-78
2021/04/07 02:19:09;;;;;;;10.18;4.85;;;103.20;1920.00;;;;;;5090939;28;20027;-78
2021/04/07 02:21:36;;;;;;;6.35;4.28;;;103.10;1920.00;;;;;;5092178;28;20052;-78
2021/04/07 02:24:03;;;;;;;6.88;4.47;;;103.10;1920.00;;;;;;5090936;28;20461;-78
2021/04/07 02:26:32;;;;;;;9.90;4.70;;;103.10;1920.00;;;;;;5091006;28;20028;-77
2021/04/07 02:28:58;;;;;;;14.85;6.25;;;103.20;1920.00;;;;;;5090291;28;20055;-78
2021/04/07 02:31:24;;;;;;;10.88;5.35;;;103.10;1920.00;;;;;;5090810;28;20477;-77
2021/04/07 02:33:49;;;;;;;12.50;7.10;;;103.10;1920.00;;;;;;5094469;28;20031;-77
2021/04/07 02:36:15;;;;;;;14.75;8.20;;;103.00;1920.00;;;;;;5094402;28;20039;-77
2021/04/07 02:38:41;;;;;;;14.40;5.93;;;103.00;1920.00;;;;;;5094842;28;20023;-78
2021/04/07 02:41:07;;;;;;;11.02;6.18;;;102.90;1920.00;;;;;;5094498;28;20063;-78
2021/04/07 02:43:32;;;;;;;30.08;8.77;;;102.90;1945.60;;;;;;5095919;28;20091;-77
2021/04/07 02:45:59;;;;;;;16.40;6.75;;;102.80;1945.60;;;;;;5095933;28;20120;-77
2021/04/07 02:48:26;;;;;;;12.77;6.95;;;102.80;1945.60;;;;;;5095718;28;20024;-77
2021/04/07 02:50:52;;;;;;;14.60;7.47;;;102.80;1920.00;;;;;;5095969;28;20028;-77
2021/04/07 02:53:17;;;;;;;12.38;7.03;;;102.90;1920.00;;;;;;5097426;28;20058;-79
2021/04/07 02:55:43;;;;;;;14.20;8.32;;;102.80;1945.60;;;;;;5094273;28;20020;-78
2021/04/07 02:58:09;;;;;;;19.85;8.55;;;102.80;1945.60;;;;;;5092935;28;20074;-78
2021/04/07 03:00:35;;;;;;;19.23;9.20;;;102.70;1945.60;;;;;;5092985;28;20152;-78
2021/04/07 03:03:00;;;;;;;18.27;9.35;;;102.80;1920.00;;;;;;5092910;28;20044;-78
2021/04/07 03:05:26;;;;;;;18.77;9.43;;;102.70;1920.00;;;;;;5094025;28;20388;-78
2021/04/07 03:07:52;;;;;;;15.48;9.10;;;102.70;1920.00;;;;;;5095516;28;20024;-78
2021/04/07 03:10:18;;;;;;;12.93;7.47;;;102.70;1920.00;;;;;;5094301;28;20034;-79
2021/04/07 03:12:43;;;;;;;16.10;7.75;;;102.70;1920.00;;;;;;5095030;28;20466;-78
2021/04/07 03:15:10;;;;;;;13.07;7.57;;;102.60;1920.00;;;;;;5094623;28;20044;-79
2021/04/07 03:17:37;;;;;;;14.95;8.35;;;102.60;1920.00;;;;;;5095837;28;20453;-78
2021/04/07 03:20:07;;;;;;;16.10;7.93;;;102.50;1920.00;;;;;;5096254;28;20099;-77
2021/04/07 03:22:34;;;;;;;11.40;6.78;;;102.50;1945.60;;;;;;5110105;28;20035;-78
2021/04/07 03:24:59;;;;;;;15.68;7.93;;;102.40;1945.60;;;;;;5109686;28;20032;-78
2021/04/07 03:27:25;;;;;;;14.68;8.35;;;77.70;1945.60;;;;;;5094616;28;20086;-78
2021/04/07 03:29:52;;;;;;;15.30;9.45;;;77.70;1945.60;;;;;;5094072;28;20031;-77
2021/04/07 03:32:19;;;;;;;16.08;9.30;;;77.70;1945.60;;;;;;5093906;28;20055;-78
2021/04/07 03:34:45;;;;;;;13.82;8.52;;;77.70;1945.60;;;;;;5094816;28;20143;-78
2021/04/07 03:37:11;;;;;;;11.45;8.02;;;77.70;1945.60;;;;;;5094702;28;20028;-78
2021/04/07 03:39:36;;;;;;;23.83;15.82;;;77.70;1945.60;;;;;;5093481;28;20373;-78
2021/04/07 03:42:02;;;;;;;37.30;26.92;;;77.70;1945.60;;;;;;5074727;28;20032;-77
2021/04/07 03:44:28;;;;;;;82.65;51.60;;;77.70;1945.60;;;;;;5093294;28;20607;-77
2021/04/07 03:46:54;;;;;;;16.45;12.90;;;77.60;1945.60;;;;;;5094735;28;20067;-79
2021/04/07 03:49:21;;;;;;;35.83;32.30;;;77.50;1945.60;;;;;;5094492;28;20156;-78
2021/04/07 03:51:48;;;;;;;20.88;18.55;;;77.40;1971.20;;;;;;5094361;28;20032;-78
2021/04/07 03:54:14;;;;;;;20.95;15.10;;;77.30;1996.80;;;;;;5094179;28;20368;-77
2021/04/07 03:56:39;;;;;;;20.55;15.77;;;77.30;1996.80;;;;;;5092836;28;20481;-79
2021/04/07 03:59:06;;;;;;;18.33;12.75;;;77.30;1996.80;;;;;;5093859;28;20032;-77
2021/04/07 04:01:32;;;;;;;14.70;10.40;;;77.30;1971.20;;;;;;5075713;28;20024;-78
2021/04/07 04:03:58;;;;;;;18.90;10.70;;;77.30;1971.20;;;;;;5126831;27;20081;-78
2021/04/07 04:06:23;;;;;;;13.52;8.48;;;77.30;1971.20;;;;;;5093951;28;20059;-77
2021/04/07 04:08:49;;;;;;;13.50;8.57;;;77.30;1971.20;;;;;;5092913;28;20028;-78
2021/04/07 04:11:15;;;;;;;16.13;10.13;;;77.30;1971.20;;;;;;5083626;28;20025;-78
2021/04/07 04:13:41;;;;;;;12.32;9.77;;;77.30;1971.20;;;;;;5090438;28;20058;-78
2021/04/07 04:16:06;;;;;;;17.42;10.90;;;77.20;1971.20;;;;;;5092822;28;20113;-79
2021/04/07 04:18:32;;;;;;;14.82;13.07;;;77.10;1996.80;;;;;;5092628;28;20036;-81
2021/04/07 04:20:58;;;;;;;11.98;8.63;;;77.20;1971.20;;;;;;5092935;28;20020;-78
2021/04/07 04:23:23;;;;;;;11.68;8.32;;;77.10;1996.80;;;;;;5084858;28;20060;-79
2021/04/07 04:25:49;;;;;;;11.95;8.70;;;77.10;1996.80;;;;;;5093012;28;20016;-80
2021/04/07 04:28:15;;;;;;;15.15;9.38;;;77.20;1996.80;;;;;;5092740;28;20513;-80
2021/04/07 04:30:41;;;;;;;18.50;9.18;;;77.20;1996.80;;;;;;5094056;28;20077;-79
2021/04/07 04:33:06;;;;;;;16.67;10.95;;;77.20;1971.20;;;;;;5095765;28;20385;-79
2021/04/07 04:35:32;;;;;;;18.70;10.77;;;77.30;1971.20;;;;;;5092501;28;20080;-77
2021/04/07 04:37:58;;;;;;;13.13;9.63;;;77.20;1971.20;;;;;;5093477;28;20085;-78
2021/04/07 04:40:23;;;;;;;17.58;9.10;;;77.20;1971.20;;;;;;5092862;28;20503;-79
2021/04/07 04:42:49;;;;;;;11.57;8.75;;;77.10;1971.20;;;;;;5090745;28;20024;-80
2021/04/07 04:45:15;;;;;;;20.10;10.38;;;77.00;1996.80;;;;;;5093933;28;20028;-82
2021/04/07 04:47:41;;;;;;;16.77;10.80;;;77.00;1996.80;;;;;;5084081;28;20432;-87
2021/04/07 04:50:09;;;;;;;20.52;10.27;;;77.00;1996.80;;;;;;5088970;28;20082;-87
2021/04/07 04:52:35;;;;;;;15.75;10.20;;;77.10;1996.80;;;;;;5082739;28;20039;-87
2021/04/07 04:55:06;;;;;;;17.85;10.43;;;77.10;1996.80;;;;;;5074205;28;20028;-88
2021/04/07 04:57:32;;;;;;;18.27;10.32;;;77.10;1996.80;;;;;;5082993;28;20028;-89
2021/04/07 04:59:58;;;;;;;22.75;11.45;;;77.20;1971.20;;;;;;5128164;27;20432;-88
2021/04/07 05:02:24;;;;;;;21.60;12.05;;;77.10;1971.20;;;;;;5099036;28;20177;-84
2021/04/07 05:04:50;;;;;;;16.95;10.90;;;77.10;1996.80;;;;;;5094239;28;20185;-80
2021/04/07 05:07:16;;;;;;;20.10;11.40;;;77.10;1996.80;;;;;;5128174;27;20055;-85
2021/04/07 05:09:41;;;;;;;21.73;13.15;;;77.10;1996.80;;;;;;5093748;28;20035;-84
2021/04/07 05:12:07;;;;;;;20.35;12.50;;;77.10;1996.80;;;;;;5111257;27;20028;-83
2021/04/07 05:14:33;;;;;;;25.70;13.10;;;77.10;1996.80;;;;;;5087978;28;20135;-84
2021/04/07 05:16:59;;;;;;;19.25;12.10;;;77.10;1996.80;;;;;;5081275;28;20040;-85
2021/04/07 05:19:25;;;;;;;19.05;12.32;;;77.10;1996.80;;;;;;5086192;28;20232;-83
2021/04/07 05:21:51;;;;;;;17.83;9.80;;;77.20;1996.80;;;;;;5094055;28;20050;-89
2021/04/07 05:24:17;;;;;;;20.95;11.85;;;77.30;1971.20;;;;;;5092256;28;20020;-83
2021/04/07 05:26:42;;;;;;;19.45;12.45;;;77.30;1971.20;;;;;;5127321;27;20473;-78
2021/04/07 05:29:08;;;;;;;17.45;11.10;;;77.40;1971.20;;;;;;5094225;28;20527;-85
2021/04/07 05:31:34;;;;;;;14.52;9.90;;;77.40;1971.20;;;;;;5093016;28;20039;-83
2021/04/07 05:34:00;;;;;;;17.77;10.07;;;77.50;1971.20;;;;;;5093050;28;20040;-83
2021/04/07 05:36:25;;;;;;;21.20;11.73;;;77.60;1971.20;;;;;;5092774;28;20024;-83
2021/04/07 05:38:51;;;;;;;18.45;11.35;;;77.60;1971.20;;;;;;5092829;28;20027;-84
2021/04/07 05:41:19;;;;;;;17.08;11.10;;;77.60;1971.20;;;;;;5092905;28;20117;-83
2021/04/07 05:43:45;;;;;;;21.77;11.73;;;77.70;1971.20;;;;;;5094185;28;20025;-83
2021/04/07 05:46:12;;;;;;;23.40;11.02;;;102.40;1945.60;;;;;;5092825;28;20031;-83
2021/04/07 05:48:38;;;;;;;25.02;12.23;;;102.50;1971.20;;;;;;5093977;28;20020;-83
2021/04/07 05:51:05;;;;;;;22.15;12.48;;;102.50;1945.60;;;;;;5092666;28;20043;-83
2021/04/07 05:53:31;;;;;;;21.45;12.13;;;102.60;1945.60;;;;;;5092982;28;20408;-82
2021/04/07 05:55:58;;;;;;;17.77;11.52;;;102.80;1920.00;;;;;;5092871;28;20020;-82
2021/04/07 05:58:25;;;;;;;26.67;13.00;;;102.80;1920.00;;;;;;5094270;28;20032;-83
2021/04/07 06:00:51;;;;;;;15.50;10.57;;;102.90;1894.40;;;;;;5093632;28;20093;-83
2021/04/07 06:03:17;;;;;;;24.30;11.90;;;103.00;1894.40;;;;;;5094753;28;20020;-83
2021/04/07 06:05:50;;;;;;;21.30;11.10;;;103.00;1894.40;;;;;;5095129;28;20458;-83
2021/04/07 06:08:17;;;;;;;15.35;9.25;;;103.10;1868.80;;;;;;5104579;28;20039;-83
2021/04/07 06:10:46;;;;;;;18.25;11.38;;;103.10;1868.80;;;;;;5101669;28;20055;-83
2021/04/07 06:13:13;;;;;;;22.17;12.98;;;103.10;1868.80;;;;;;5100748;28;20084;-83
2021/04/07 06:15:39;;;;;;;20.73;13.52;;;103.30;1868.80;;;;;;5079983;28;20055;-83
2021/04/07 06:18:07;;;;;;;24.40;15.02;;;128.00;1868.80;;;;;;5098076;28;20039;-84
2021/04/07 06:20:39;;;;;;;29.65;15.50;;;128.00;1868.80;;;;;;5097724;28;20020;-83
2021/04/07 06:23:05;;;;;;;26.83;13.63;;;128.10;1868.80;;;;;;5097013;28;20020;-83
2021/04/07 06:25:32;;;;;;;30.58;13.52;;;128.10;1843.20;;;;;;5097927;28;20016;-83
2021/04/07 06:28:02;;;;;;;20.48;12.48;;;128.30;1843.20;;;;;;5097635;28;20024;-83
2021/04/07 06:33:14;;;;;;;13.75;9.25;;;128.30;1843.20;;;;;;5097765;28;20052;-83
2021/04/07 06:35:41;;;;;;;21.27;11.75;;;128.50;1817.60;;;;;;5095818;28;20028;-83
2021/04/07 06:38:07;;;;;;;15.48;10.27;;;128.60;1817.60;;;;;;5095625;28;20056;-83
2021/04/07 06:40:33;;;;;;;17.23;10.10;;;128.60;1792.00;;;;;;5095465;28;20024;-83
2021/04/07 06:43:00;;;;;;;16.17;10.32;;;128.80;1792.00;;;;;;5098420;28;20023;-83
2021/04/07 06:45:28;;;;;;;18.85;10.50;;;128.80;1792.00;;;;;;5100677;28;20031;-83
2021/04/07 06:47:54;;;;;;;14.43;9.10;;;128.80;1792.00;;;;;;5097700;28;20036;-83
2021/04/07 06:50:21;;;;;;;13.80;9.55;;;153.60;1766.40;;;;;;5095858;28;20032;-83
2021/04/07 06:52:48;;;;;;;11.45;9.25;;;153.60;1766.40;;;;;;5097477;28;20105;-83
2021/04/07 06:55:16;;;;;;;18.17;10.35;;;153.70;1766.40;;;;;;5095331;28;20032;-83
2021/04/07 06:57:43;;;;;;;19.38;12.55;;;153.80;1766.40;;;;;;5096015;28;20024;-83
2021/04/07 07:00:10;;;;;;;25.05;13.18;;;153.90;1740.80;;;;;;5096210;28;20085;-84
2021/04/07 07:02:36;;;;;;;15.35;9.05;;;154.00;1740.80;;;;;;5096193;28;20050;-84
2021/04/07 07:05:02;;;;;;;17.45;10.45;;;154.00;1715.20;;;;;;5097166;28;20384;-84
2021/04/07 07:07:29;;;;;;;17.30;10.55;;;154.10;1715.20;;;;;;5095971;28;20072;-84
2021/04/07 07:09:55;;;;;;;15.48;9.85;;;154.20;1715.20;;;;;;5097002;28;20024;-83
2021/04/07 07:12:23;;;;;;;23.67;16.35;;;154.30;1689.60;;;;;;5096881;28;20036;-83
2021/04/07 07:14:49;;;;;;;19.52;13.00;;;154.40;1664.00;;;;;;5095309;28;20048;-84
2021/04/07 07:17:26;;;;;;;15.63;10.25;;;154.40;1638.40;;;;;;5095425;28;20029;-83
2021/04/07 07:19:52;;;;;;;14.90;9.88;;;154.50;1612.80;;;;;;5094332;28;20016;-85
2021/04/07 07:22:26;;;;;;;11.60;7.97;;;179.20;1612.80;;;;;;5095605;28;20055;-83
2021/04/07 07:24:54;;;;;;;14.70;7.15;;;179.30;1612.80;;;;;;5095959;28;20035;-83
2021/04/07 07:27:22;;;;;;;14.48;8.98;;;179.30;1612.80;;;;;;5095583;28;20051;-83
2021/04/07 07:29:56;;;;;;;20.48;11.52;;;179.40;1587.20;;;;;;5096576;28;20120;-83
2021/04/07 07:32:31;;;;;;;13.52;9.45;;;179.50;1561.60;;;;;;5096843;28;20020;-84
2021/04/07 07:35:16;;;;;;;14.60;8.82;;;179.60;1536.00;;;;;;5095269;28;20116;-83
2021/04/07 07:37:44;;;;;;;11.60;7.03;;;179.60;1536.00;;;;;;5095498;28;20093;-83
2021/04/07 07:40:18;;;;;;;8.20;5.97;;;179.80;1536.00;;;;;;5096541;28;20115;-82
2021/04/07 07:42:45;;;;;;;9.88;7.32;;;179.90;1536.00;;;;;;5095151;28;20020;-83
2021/04/07 07:45:13;;;;;;;10.70;7.65;;;179.90;1484.80;;;;;;5095139;28;20024;-83
2021/04/07 07:47:45;;;;;;;13.48;8.40;;;180.00;1484.80;;;;;;5078279;28;20062;-83
2021/04/07 07:50:12;;;;;;;21.05;7.80;;;180.00;1484.80;;;;;;5095230;28;20111;-83
2021/04/07 07:52:41;;;;;;;6.47;5.88;;;180.10;1459.20;;;;;;5094914;28;20493;-83
2021/04/07 07:55:17;;;;;;;12.27;6.95;;;204.80;1433.60;;;;;;5095706;28;20032;-83
2021/04/07 07:57:55;;;;;;;11.70;6.97;;;204.90;1433.60;;;;;;5094561;28;20078;-83
2021/04/07 08:00:26;;;;;;;10.65;6.50;;;204.90;1433.60;;;;;;5094717;28;20043;-83
2021/04/07 08:02:52;;;;;;;7.78;5.35;;;205.00;1433.60;;;;;;5094847;28;20020;-83
2021/04/07 08:05:19;;;;;;;7.53;5.78;;;205.10;1433.60;;;;;;5094550;28;20024;-83
2021/04/07 08:07:45;;;;;;;14.10;7.72;;;205.10;1408.00;;;;;;5094277;28;20036;-83
2021/04/07 08:10:12;;;;;;;6.05;5.30;;;205.20;1433.60;;;;;;5095118;28;20024;-84
2021/04/07 08:12:40;;;;;;;11.07;6.97;;;205.30;1382.40;;;;;;5095229;28;20028;-83
2021/04/07 08:15:09;;;;;;;11.75;6.57;;;205.40;1408.00;;;;;;5074848;28;20057;-84
2021/04/07 08:17:36;;;;;;;15.53;7.13;;;205.50;1382.40;;;;;;5074146;28;20032;-83
2021/04/07 08:20:05;;;;;;;6.47;5.32;;;205.50;1356.80;;;;;;5075325;28;20462;-84
2021/04/07 08:22:34;;;;;;;5.10;3.90;;;205.50;1331.20;;;;;;5075090;28;20023;-84
2021/04/07 08:25:02;;;;;;;9.60;6.32;;;205.70;1305.60;;;;;;5073958;28;20393;-84
2021/04/07 08:27:28;;;;;;;7.95;6.15;;;205.70;1305.60;;;;;;5075129;28;20032;-84
2021/04/07 08:29:54;;;;;;;9.32;5.70;;;230.40;1305.60;;;;;;5073818;28;20029;-84
2021/04/07 08:32:21;;;;;;;9.13;5.57;;;230.40;1280.00;;;;;;5073661;28;20033;-84
2021/04/07 08:34:48;;;;;;;6.88;5.10;;;230.50;1280.00;;;;;;5073191;28;20021;-84
2021/04/07 08:37:28;;;;;;;6.53;5.00;;;230.60;1280.00;;;;;;5073304;28;20544;-84
2021/04/07 08:39:55;;;;;;;7.82;4.88;;;230.60;1254.40;;;;;;5073048;28;20023;-84
2021/04/07 08:42:22;;;;;;;4.82;4.35;;;230.70;1254.40;;;;;;5074296;28;20086;-83
2021/04/07 08:44:49;;;;;;;6.40;4.57;;;230.80;1177.60;;;;;;5074370;28;20036;-83
2021/04/07 08:47:29;;;;;;;10.23;5.28;;;230.80;1177.60;;;;;;5078748;28;20032;-83
2021/04/07 08:50:06;;;;;;;9.10;6.10;;;230.90;1177.60;;;;;;5090686;28;20040;-83
2021/04/07 08:52:43;;;;;;;7.68;5.35;;;231.00;1152.00;;;;;;5078294;28;20055;-81
2021/04/07 08:55:27;;;;;;;11.82;5.82;;;231.00;1177.60;;;;;;5076949;28;20029;-83
2021/04/07 08:58:00;;;;;;;7.75;5.35;;;231.20;1152.00;;;;;;5076566;28;20160;-84
2021/04/07 09:00:29;;;;;;;10.95;5.53;;;231.20;1177.60;;;;;;5074812;28;20474;-84
2021/04/07 09:02:57;;;;;;;13.52;7.55;;;231.30;1177.60;;;;;;5073419;28;20032;-79
2021/04/07 09:05:34;;;;;;;11.63;5.47;;;256.00;1152.00;;;;;;5073173;28;20024;-82
2021/04/07 09:08:00;;;;;;;7.00;5.10;;;256.10;1100.80;;;;;;5073680;28;20082;-81
2021/04/07 09:10:37;;;;;;;10.18;5.03;;;256.10;1100.80;;;;;;5071596;28;20035;-82
2021/04/07 09:13:11;;;;;;;6.53;4.97;;;256.20;1075.20;;;;;;5074726;28;20024;-82
2021/04/07 09:15:55;;;;;;;6.40;3.88;;;256.30;1075.20;;;;;;5093212;28;20121;-82
2021/04/07 09:18:47;;;;;;;5.18;4.35;;;256.40;1100.80;;;;;;5094159;28;20078;-81
2021/04/07 09:21:17;;;;;;;6.38;3.55;;;256.40;1049.60;;;;;;5093619;28;20044;-81
2021/04/07 09:23:54;;;;;;;7.45;4.47;;;256.40;1024.00;;;;;;5092571;28;20023;-81
2021/04/07 09:26:24;;;;;;;11.10;6.60;;;256.40;1049.60;;;;;;5092819;28;20027;-82
2021/04/07 09:28:51;;;;;;;8.60;3.83;;;256.50;1024.00;;;;;;5091857;28;20028;-81
2021/04/07 09:31:33;;;;;;;18.95;4.97;;;256.60;1024.00;;;;;;5091868;28;20066;-81
2021/04/07 09:33:59;;;;;;;8.35;4.63;;;256.70;1024.00;;;;;;5077229;28;20059;-82
2021/04/07 09:36:37;;;;;;;10.05;4.85;;;256.70;1024.00;;;;;;5092369;28;20774;-81
2021/04/07 09:39:06;;;;;;;9.05;5.00;;;256.90;1049.60;;;;;;5092678;28;20307;-83
2021/04/07 09:41:35;;;;;;;5.85;4.20;;;256.90;1049.60;;;;;;5092165;28;20028;-81
2021/04/07 09:44:02;;;;;;;7.93;3.90;;;281.70;1075.20;;;;;;5092506;28;20366;-81
2021/04/07 09:46:28;;;;;;;7.68;3.58;;;281.80;1024.00;;;;;;5092518;28;20031;-82
2021/04/07 09:48:57;;;;;;;5.40;3.22;;;281.90;1024.00;;;;;;5092665;28;20029;-81
2021/04/07 09:51:30;;;;;;;9.25;3.05;;;282.00;998.40;;;;;;5092173;28;20448;-83
2021/04/07 09:54:08;;;;;;;8.57;3.55;;;282.00;972.80;;;;;;5093230;28;20021;-77
2021/04/07 09:57:00;;;;;;;9.68;4.15;;;282.00;972.80;;;;;;5092309;28;20043;-82
2021/04/07 09:59:49;;;;;;;5.10;3.75;;;282.00;896.00;;;;;;5093340;28;20024;-79
2021/04/07 10:02:25;;;;;;;5.32;3.80;;;282.10;972.80;;;;;;5092094;28;20408;-82
2021/04/07 10:04:54;;;;;;;3.85;3.20;;;282.20;998.40;;;;;;5092417;28;20052;-82
2021/04/07 10:07:22;;;;;;;15.25;3.40;;;282.20;998.40;;;;;;5093450;28;20024;-82
2021/04/07 10:09:53;;;;;;;8.27;3.53;;;282.20;947.20;;;;;;5091919;28;20177;-82
2021/04/07 10:12:23;;;;;;;5.10;3.53;;;282.30;896.00;;;;;;5091333;28;20028;-82
2021/04/07 10:14:56;;;;;;;5.18;3.13;;;282.30;921.60;;;;;;5092212;28;20500;-82
2021/04/07 10:17:30;;;;;;;7.28;3.33;;;282.40;896.00;;;;;;5092364;28;20444;-82
2021/04/07 10:20:05;;;;;;;6.05;3.63;;;282.40;844.80;;;;;;5092386;28;20035;-81
2021/04/07 10:22:32;;;;;;;7.55;4.20;;;282.40;870.40;;;;;;5091763;28;20025;-81
2021/04/07 10:25:12;;;;;;;5.47;3.13;;;282.50;921.60;;;;;;5092301;28;20073;-81
2021/04/07 10:27:38;;;;;;;7.28;3.38;;;307.20;947.20;;;;;;5091966;28;20028;-81
2021/04/07 10:30:07;;;;;;;7.95;3.45;;;282.50;844.80;;;;;;5093401;28;20024;-80
2021/04/07 10:32:41;;;;;;;10.50;4.53;;;307.30;921.60;;;;;;5091961;28;20051;-80
2021/04/07 10:35:17;;;;;;;4.78;3.28;;;307.30;870.40;;;;;;5092105;28;20085;-81
2021/04/07 10:37:56;;;;;;;10.70;4.43;;;307.50;896.00;;;;;;5091751;28;20028;-81
2021/04/07 10:40:26;;;;;;;5.88;3.53;;;307.60;844.80;;;;;;5091937;28;20043;-81
2021/04/07 10:42:53;;;;;;;6.38;2.88;;;307.70;870.40;;;;;;5074765;28;20397;-81
2021/04/07 10:45:21;;;;;;;4.97;2.95;;;307.60;844.80;;;;;;5091907;28;20024;-81
2021/04/07 10:47:48;;;;;;;2.97;2.28;;;307.60;844.80;;;;;;5091955;28;20488;-82
2021/04/07 10:50:14;;;;;;;9.25;4.13;;;307.60;819.20;;;;;;5092926;28;20028;-81
2021/04/07 10:52:45;;;;;;;6.53;5.15;;;307.70;844.80;;;;;;5092061;28;20397;-81
2021/04/07 10:55:23;;;;;;;3.45;2.60;;;307.60;844.80;;;;;;5096695;28;20477;-80
2021/04/07 10:57:52;;;;;;;6.53;3.33;;;307.70;896.00;;;;;;5096705;28;20024;-81
2021/04/07 11:00:31;;;;;;;4.40;3.55;;;307.70;844.80;;;;;;5095578;28;20107;-81
2021/04/07 11:02:57;;;;;;;9.05;4.00;;;307.70;844.80;;;;;;5096610;28;20024;-80
2021/04/07 11:05:25;;;;;;;4.07;3.25;;;307.70;844.80;;;;;;5094924;28;20435;-81
2021/04/07 11:08:05;;;;;;;3.90;3.40;;;307.80;870.40;;;;;;5096021;28;20032;-81
2021/04/07 11:10:48;;;;;;;7.73;3.17;;;307.80;896.00;;;;;;5096751;28;20035;-81
2021/04/07 11:13:19;;;;;;;12.27;5.38;;;307.80;870.40;;;;;;5078389;28;20028;-83
2021/04/07 11:15:46;;;;;;;4.80;3.85;;;307.90;844.80;;;;;;5095207;28;20052;-81
2021/04/07 11:18:13;;;;;;;4.93;4.22;;;307.90;844.80;;;;;;5096568;28;20468;-80
2021/04/07 11:20:42;;;;;;;7.68;3.15;;;308.00;844.80;;;;;;5095059;28;20031;-82
2021/04/07 11:23:09;;;;;;;6.97;4.32;;;308.00;870.40;;;;;;5094556;28;20024;-80
2021/04/07 11:25:34;;;;;;;3.35;2.42;;;308.10;947.20;;;;;;5096544;28;20023;-81
2021/04/07 11:28:00;;;;;;;4.47;3.40;;;332.90;947.20;;;;;;5095500;28;20028;-81
2021/04/07 11:30:32;;;;;;;3.30;2.88;;;333.00;947.20;;;;;;5100282;28;20032;-82
2021/04/07 11:33:00;;;;;;;3.95;2.83;;;333.10;870.40;;;;;;5100835;28;20028;-81
2021/04/07 11:38:02;;;;;;;4.60;2.25;;;333.40;921.60;;;;;;5096181;28;20209;-80
2021/04/07 11:43:22;;;;;;;7.50;3.10;;;333.40;896.00;;;;;;5095898;28;20030;-80
2021/04/07 11:45:49;;;;;;;3.90;2.15;;;333.30;844.80;;;;;;5094493;28;20070;-81
2021/04/07 11:48:14;;;;;;;4.82;3.45;;;333.20;844.80;;;;;;5077693;28;20469;-81
2021/04/07 11:50:40;;;;;;;6.38;2.67;;;333.20;819.20;;;;;;5087141;28;20039;-82
2021/04/07 11:53:06;;;;;;;4.15;3.65;;;333.30;819.20;;;;;;5075338;28;20035;-82
2021/04/07 11:55:32;;;;;;;4.38;3.95;;;333.30;819.20;;;;;;5073786;28;20036;-82
2021/04/07 11:57:59;;;;;;;6.68;3.65;;;333.40;793.60;;;;;;5073897;28;20029;-81
2021/04/07 12:00:25;;;;;;;9.25;5.82;;;333.30;742.40;;;;;;5073924;28;20086;-79
2021/04/07 12:02:51;;;;;;;11.70;6.47;;;333.30;768.00;;;;;;5073754;28;20137;-82
2021/04/07 12:05:23;;;;;;;9.52;5.93;;;333.40;819.20;;;;;;5074278;28;20040;-82
2021/04/07 12:07:50;;;;;;;4.50;3.50;;;333.50;793.60;;;;;;5090753;28;20028;-82
2021/04/07 12:10:16;;;;;;;8.18;4.32;;;333.50;793.60;;;;;;5093316;28;20040;-82
2021/04/07 12:12:42;;;;;;;8.35;4.70;;;333.50;844.80;;;;;;5093885;28;20496;-82
2021/04/07 12:15:09;;;;;;;9.18;3.40;;;333.50;819.20;;;;;;5094067;28;20048;-82
2021/04/07 12:17:34;;;;;;;8.77;4.75;;;333.40;793.60;;;;;;5095068;28;20028;-82
2021/04/07 12:20:00;;;;;;;10.93;6.05;;;333.20;768.00;;;;;;5093615;28;20036;-82
2021/04/07 12:22:26;;;;;;;7.05;3.20;;;333.20;793.60;;;;;;5094450;28;20396;-84
2021/04/07 12:24:52;;;;;;;13.68;8.68;;;333.20;793.60;;;;;;5093766;28;20074;-78
2021/04/07 12:27:18;;;;;;;19.25;9.55;;;333.40;896.00;;;;;;5094508;28;20016;-83